Cocoa Beach, Florida
Current Conditions -  °F | °C
As of 8:58 PM on Friday 24 Oct 2014 (Local Time) from KCOF Reporting Station
Overcast Overcast  
Wind Chill: 75°   Ceiling: 4500
Heat Index: 75°   Visibility: 10mi
Dew Point: 58°   Wind: 14mph
Humidity: 57%   Direction: 30°NNE
Pressure: 29.92"   Gusts: NA
Location:  28.32°N, 80.61°W
Report Text: KCOF 250058Z AUTO 03012KT 10SM OVC045 24/15 A2992 RMK AO2 SLP136 T02380147
Loading
Personal Weather Stations






























Interactive Weather Map
Tropical Storm Tracking
New forecast layout! Learn more

10-Day Weather Forecast

Advertisements
Track Severe Weather on mobile